Airfield :
LOGIN :

Register | Disclaimer

   EN    FR    IT 

 










Legend :    VFR   Marginal VFR   IFR   Intensive IFR   Very Intensive IFR
Visi :
Ceiling :
>= 8 km
>= 3000ft
5 to 8 km
1000 to 3000 ft
1500m to 5 km
500 to 1000 ft
800 to 1500m
200 to 500 ft
< 800m
< 200 ft
Symbols :   Thunderstorms  Fog  Heavy snow  Heavy precipitations  Wind > 20 kt
SIGMETs :     Misc.  Thunderstorms  Icing  Turbulence  Mountain Waves  Volcanic Ashes






- Airport Elevation : -15 ft
- IATA code : RTM


EHRD - Rotterdam Zestienhoven

CURRENT METAR :
  • 240525Z AUTO 18011KT 6000 FEW006 OVC038 08/07 Q1023 NOSIG

EXPIRED METARs :
  • 240455Z AUTO 19010KT 5000 BR FEW006 OVC039 08/07 Q1023 NOSIG
  • 240425Z AUTO 19009KT 6000 OVC039 08/07 Q1023 NOSIG
  • 240355Z AUTO 18011KT 7000 OVC040 08/07 Q1023 NOSIG
  • 240325Z AUTO 19009KT 5000 BR OVC039 08/07 Q1024 TEMPO 4000 SCT007
  • 240255Z AUTO 18009KT 5000 BR OVC039 08/07 Q1024 TEMPO 4000 SCT007

TAF TAF EHRD
Valid from the 24 at 06:00 until the 25 at 12:00 UTC


240516Z 2406/2512 19010KT 6000 BKN040
PROB40 2406/2409 4000 BR BKN008
PROB30
TEMPO 2409/2412 BKN008
BECMG 2412/2415 9999
BECMG 2415/2418 16010KT



MET'MAP, your aeronautical weather chart ! - Copyright ORBIFLY December 2007 - Disclaimer

ORBIFLY MET'MAP TEAM :

Programming & Development : Alexandra Zaïnal
Concept & original design : Baudouin d'Aumeries
Assistance for programming : Marc-Olivier Méhu
Technical & hardware support : Manuel Goepfert

Contact : metmap@orbifly.com




SOURCES & CREDITS :

   NOAA